createdAt,value
2022-10-25T00:00:40.810Z,98625.94
2022-10-25T00:03:09.457Z,98621.22
2022-10-25T00:05:36.551Z,98619.44
2022-10-25T00:08:03.564Z,98610.03
2022-10-25T00:10:30.414Z,98618.59
2022-10-25T00:12:57.317Z,98615.09
2022-10-25T00:15:24.122Z,98616.97
2022-10-25T00:17:50.763Z,98617.81
2022-10-25T00:20:18.122Z,98617.44
2022-10-25T00:22:45.001Z,98618.69
2022-10-25T00:25:12.115Z,98627.22
2022-10-25T00:27:38.911Z,98616.69
2022-10-25T00:30:06.599Z,98621.38
2022-10-25T00:32:34.257Z,98628.53
2022-10-25T00:35:01.062Z,98623.69
2022-10-25T00:37:28.052Z,98625.50
2022-10-25T00:39:54.655Z,98635.72
2022-10-25T00:42:24.431Z,98635.94
2022-10-25T00:44:57.225Z,98640.25
2022-10-25T00:47:32.705Z,98643.88
2022-10-25T00:50:18.224Z,98639.69
2022-10-25T00:52:47.383Z,98635.56
2022-10-25T00:55:18.885Z,98626.16
2022-10-25T00:58:00.979Z,98635.94
2022-10-25T01:00:27.924Z,98645.53
2022-10-25T01:05:26.437Z,98649.50
2022-10-25T01:07:53.151Z,98649.88
2022-10-25T01:10:19.735Z,98649.03
2022-10-25T01:12:48.669Z,98646.84
2022-10-25T01:15:18.151Z,98646.63
2022-10-25T01:18:02.159Z,98633.16
2022-10-25T01:20:44.048Z,98630.53
2022-10-25T01:23:26.844Z,98635.22
2022-10-25T01:26:12.206Z,98631.66
2022-10-25T01:29:12.200Z,98633.34
2022-10-25T01:31:50.449Z,98624.22
2022-10-25T01:34:26.794Z,98625.91
2022-10-25T01:37:00.544Z,98632.78
2022-10-25T01:39:39.763Z,98630.72
2022-10-25T01:42:07.732Z,98631.53
2022-10-25T01:44:49.699Z,98642.53
2022-10-25T01:47:28.464Z,98637.06
2022-10-25T01:50:05.865Z,98651.25
2022-10-25T01:52:32.502Z,98639.88
2022-10-25T01:54:59.041Z,98651.53
2022-10-25T01:57:45.354Z,98653.94
2022-10-25T02:00:17.904Z,98650.47
2022-10-25T02:02:59.810Z,98648.44
2022-10-25T02:05:45.620Z,98645.00
2022-10-25T02:08:29.057Z,98646.41
2022-10-25T02:11:17.979Z,98648.25
2022-10-25T02:13:53.651Z,98635.84
2022-10-25T02:16:26.383Z,98648.25
2022-10-25T02:18:59.491Z,98642.34
2022-10-25T02:21:28.855Z,98647.88
2022-10-25T02:23:58.235Z,98650.72
2022-10-25T02:26:25.072Z,98647.28
2022-10-25T02:28:55.177Z,98648.53
2022-10-25T02:31:24.771Z,98645.66
2022-10-25T02:33:51.823Z,98644.41
2022-10-25T02:36:23.923Z,98646.84
2022-10-25T02:38:53.044Z,98647.66
2022-10-25T02:41:21.447Z,98645.03
2022-10-25T02:43:48.323Z,98644.84
2022-10-25T02:46:18.119Z,98647.28
2022-10-25T02:48:44.742Z,98647.28
2022-10-25T02:51:12.499Z,98659.13
2022-10-25T02:53:39.586Z,98659.13
2022-10-25T02:56:07.860Z,98660.56
2022-10-25T02:58:36.703Z,98665.22
2022-10-25T03:01:04.925Z,98667.31
2022-10-25T03:03:32.310Z,98667.31
2022-10-25T03:05:59.053Z,98669.16
2022-10-25T03:10:58.527Z,98668.22
2022-10-25T03:13:25.153Z,98666.78
2022-10-25T03:15:51.777Z,98670.66
2022-10-25T03:18:18.577Z,98663.75
2022-10-25T03:20:45.455Z,98655.63
2022-10-25T03:23:12.584Z,98659.69
2022-10-25T03:25:39.213Z,98667.41
2022-10-25T03:28:05.874Z,98676.38
2022-10-25T03:30:32.494Z,98673.72
2022-10-25T03:32:59.196Z,98670.25
2022-10-25T03:35:26.456Z,98669.47
2022-10-25T03:37:53.623Z,98669.03
2022-10-25T03:40:21.015Z,98670.25
2022-10-25T03:42:47.706Z,98675.38
2022-10-25T03:45:14.435Z,98685.75
2022-10-25T03:47:41.034Z,98702.25
2022-10-25T03:50:08.174Z,98708.34
2022-10-25T03:52:35.817Z,98705.69
2022-10-25T03:55:02.441Z,98717.91
2022-10-25T03:57:29.086Z,98718.31
2022-10-25T03:59:57.751Z,98720.78
2022-10-25T04:02:24.383Z,98729.28
2022-10-25T04:04:50.967Z,98726.06
2022-10-25T04:07:17.682Z,98724.41
2022-10-25T04:09:44.775Z,98729.06
2022-10-25T04:12:11.650Z,98730.50
2022-10-25T04:14:38.317Z,98725.63
2022-10-25T04:17:04.939Z,98732.13
2022-10-25T04:19:31.519Z,98729.28
2022-10-25T04:21:58.152Z,98734.56
2022-10-25T04:24:24.721Z,98731.72
2022-10-25T04:26:51.363Z,98729.06
2022-10-25T04:29:17.946Z,98738.03
2022-10-25T04:31:44.562Z,98744.53
2022-10-25T04:34:11.358Z,98741.88
2022-10-25T04:36:39.141Z,98745.31
2022-10-25T04:39:05.995Z,98738.41
2022-10-25T04:41:32.767Z,98738.63
2022-10-25T04:43:59.389Z,98740.25
2022-10-25T04:46:26.023Z,98738.63
2022-10-25T04:48:52.810Z,98741.06
2022-10-25T04:51:19.443Z,98732.94
2022-10-25T04:53:46.086Z,98737.84
2022-10-25T04:56:14.431Z,98737.00
2022-10-25T04:58:41.536Z,98736.81
2022-10-25T05:01:11.534Z,98735.00
2022-10-25T05:03:38.670Z,98723.81
2022-10-25T05:06:07.202Z,98732.34
2022-10-25T05:08:34.513Z,98732.94
2022-10-25T05:11:01.280Z,98730.94
2022-10-25T05:13:31.649Z,98738.25
2022-10-25T05:15:58.905Z,98732.38
2022-10-25T05:18:25.642Z,98724.00
2022-10-25T05:20:55.945Z,98733.16
2022-10-25T05:23:23.487Z,98736.00
2022-10-25T05:26:04.959Z,98741.50
2022-10-25T05:28:32.635Z,98744.53
2022-10-25T05:31:04.085Z,98748.00
2022-10-25T05:33:30.743Z,98749.63
2022-10-25T05:36:00.278Z,98749.00
2022-10-25T05:38:27.889Z,98755.28
2022-10-25T05:40:55.938Z,98754.06
2022-10-25T05:43:23.152Z,98752.44
2022-10-25T05:45:50.274Z,98762.78
2022-10-25T05:48:18.789Z,98758.94
2022-10-25T05:50:45.769Z,98758.94
2022-10-25T05:53:12.444Z,98768.91
2022-10-25T05:55:39.033Z,98774.38
2022-10-25T05:58:06.883Z,98771.34
2022-10-25T06:00:33.548Z,98782.09
2022-10-25T06:03:02.182Z,98789.81
2022-10-25T06:05:29.403Z,98796.72
2022-10-25T06:07:56.119Z,98803.00
2022-10-25T06:10:22.999Z,98797.53
2022-10-25T06:12:50.067Z,98795.09
2022-10-25T06:15:16.912Z,98793.47
2022-10-25T06:17:43.494Z,98801.19
2022-10-25T06:20:10.364Z,98800.78
2022-10-25T06:22:37.095Z,98799.16
2022-10-25T06:25:03.912Z,98807.72
2022-10-25T06:27:30.516Z,98805.47
2022-10-25T06:30:00.381Z,98814.38
2022-10-25T06:32:28.337Z,98823.94
2022-10-25T06:34:54.915Z,98817.25
2022-10-25T06:37:24.791Z,98825.16
2022-10-25T06:39:51.563Z,98822.94
2022-10-25T06:42:18.181Z,98818.69
2022-10-25T06:44:44.824Z,98830.06
2022-10-25T06:47:17.341Z,98827.66
2022-10-25T06:49:45.779Z,98833.31
2022-10-25T06:52:12.396Z,98829.66
2022-10-25T06:54:39.013Z,98830.69
2022-10-25T06:57:05.681Z,98835.38
2022-10-25T06:59:32.355Z,98843.50
2022-10-25T07:01:59.072Z,98851.00
2022-10-25T07:04:25.741Z,98850.63
2022-10-25T07:06:55.127Z,98845.16
2022-10-25T07:09:22.398Z,98848.00
2022-10-25T07:11:48.995Z,98853.28
2022-10-25T07:14:15.686Z,98848.81
2022-10-25T07:16:42.479Z,98844.13
2022-10-25T07:19:10.572Z,98845.94
2022-10-25T07:21:37.228Z,98845.13
2022-10-25T07:24:04.154Z,98843.91
2022-10-25T07:26:34.347Z,98842.03
2022-10-25T07:29:02.213Z,98846.22
2022-10-25T07:31:33.271Z,98851.91
2022-10-25T07:34:01.871Z,98856.75
2022-10-25T07:36:29.015Z,98857.50
2022-10-25T07:38:57.077Z,98863.34
2022-10-25T07:41:24.906Z,98856.53
2022-10-25T07:43:51.934Z,98857.19
2022-10-25T07:46:18.625Z,98845.53
2022-10-25T07:48:45.278Z,98839.44
2022-10-25T07:51:14.563Z,98846.72
2022-10-25T07:53:41.610Z,98855.25
2022-10-25T07:56:16.203Z,98840.88
2022-10-25T07:58:46.296Z,98842.94
2022-10-25T08:01:18.054Z,98835.06
2022-10-25T08:03:44.723Z,98830.84
2022-10-25T08:06:11.304Z,98838.38
2022-10-25T08:08:38.036Z,98845.38
2022-10-25T08:11:08.119Z,98848.22
2022-10-25T08:13:37.356Z,98848.00
2022-10-25T08:16:05.800Z,98844.69
2022-10-25T08:18:33.803Z,98845.38
2022-10-25T08:21:03.956Z,98847.91
2022-10-25T08:23:32.027Z,98843.50
2022-10-25T08:25:59.296Z,98845.84
2022-10-25T08:28:26.179Z,98839.56
2022-10-25T08:30:55.699Z,98840.63
2022-10-25T08:33:23.690Z,98838.72
2022-10-25T08:35:50.309Z,98843.66
2022-10-25T08:38:17.020Z,98830.44
2022-10-25T08:40:43.551Z,98827.28
2022-10-25T08:43:28.497Z,98827.03
2022-10-25T08:46:00.267Z,98823.81
2022-10-25T08:48:34.450Z,98832.72
2022-10-25T08:51:10.650Z,98843.13
2022-10-25T08:53:40.549Z,98832.00
2022-10-25T08:56:16.679Z,98836.59
2022-10-25T08:58:48.633Z,98836.94
2022-10-25T09:01:22.643Z,98837.44
2022-10-25T09:03:49.561Z,98850.63
2022-10-25T09:06:34.435Z,98841.16
2022-10-25T09:09:33.931Z,98840.34
2022-10-25T09:12:15.752Z,98828.00
2022-10-25T09:14:43.312Z,98831.81
2022-10-25T09:17:31.153Z,98838.16
2022-10-25T09:19:57.792Z,98843.94
2022-10-25T09:22:30.028Z,98840.63
2022-10-25T09:25:02.315Z,98836.59
2022-10-25T09:28:04.155Z,98835.06
2022-10-25T09:30:37.621Z,98831.34
2022-10-25T09:33:11.514Z,98833.72
2022-10-25T09:35:46.471Z,98832.44
2022-10-25T09:38:35.506Z,98834.56
2022-10-25T09:41:06.381Z,98836.31
2022-10-25T09:43:41.026Z,98844.78
2022-10-25T09:46:18.875Z,98849.09
2022-10-25T09:48:54.506Z,98850.44
2022-10-25T09:51:43.395Z,98852.53
2022-10-25T09:54:24.096Z,98842.75
2022-10-25T09:56:50.921Z,98843.09
2022-10-25T09:59:17.587Z,98840.19
2022-10-25T10:01:44.293Z,98839.97
2022-10-25T10:04:24.744Z,98828.63
2022-10-25T10:06:56.755Z,98827.06
2022-10-25T10:09:28.289Z,98820.84
2022-10-25T10:11:56.582Z,98820.84
2022-10-25T10:14:41.208Z,98828.94
2022-10-25T10:17:15.253Z,98832.63
2022-10-25T10:19:43.991Z,98829.03
2022-10-25T10:22:15.377Z,98826.84
2022-10-25T10:24:44.431Z,98821.22
2022-10-25T10:27:24.641Z,98816.78
2022-10-25T10:29:55.442Z,98818.97
2022-10-25T10:32:32.116Z,98816.19
2022-10-25T10:34:59.489Z,98817.19
2022-10-25T10:37:32.016Z,98825.78
2022-10-25T10:40:13.848Z,98823.72
2022-10-25T10:42:42.742Z,98820.63
2022-10-25T10:45:15.391Z,98830.84
2022-10-25T10:47:44.970Z,98824.94
2022-10-25T10:50:23.089Z,98814.16
2022-10-25T10:53:06.123Z,98809.91
2022-10-25T10:55:35.565Z,98808.38
2022-10-25T10:58:14.714Z,98806.72
2022-10-25T11:00:50.684Z,98796.75
2022-10-25T11:03:42.401Z,98798.63
2022-10-25T11:06:15.601Z,98790.38
2022-10-25T11:08:44.444Z,98786.47
2022-10-25T11:11:14.874Z,98791.81
2022-10-25T11:13:58.238Z,98798.44
2022-10-25T11:16:42.554Z,98802.00
2022-10-25T11:19:36.510Z,98794.31
2022-10-25T11:22:24.403Z,98787.69
2022-10-25T11:24:50.960Z,98807.31
2022-10-25T11:27:39.531Z,98798.69
2022-10-25T11:30:23.806Z,98792.25
2022-10-25T11:33:05.959Z,98790.88
2022-10-25T11:35:48.979Z,98792.69
2022-10-25T11:38:26.948Z,98788.72
2022-10-25T11:41:23.389Z,98790.31
2022-10-25T11:44:08.429Z,98794.34
2022-10-25T11:46:53.363Z,98794.09
2022-10-25T11:49:36.209Z,98787.13
2022-10-25T11:52:18.246Z,98787.09
2022-10-25T11:55:00.239Z,98776.91
2022-10-25T11:57:52.631Z,98784.97
2022-10-25T12:00:29.531Z,98782.88
2022-10-25T12:03:25.856Z,98778.38
2022-10-25T12:06:15.376Z,98775.19
2022-10-25T12:08:57.648Z,98773.63
2022-10-25T12:11:33.219Z,98770.19
2022-10-25T12:14:05.140Z,98769.13
2022-10-25T12:16:34.278Z,98760.00
2022-10-25T12:19:15.282Z,98761.06
2022-10-25T12:21:50.182Z,98763.50
2022-10-25T12:24:23.018Z,98758.16
2022-10-25T12:26:53.610Z,98755.75
2022-10-25T12:29:26.797Z,98757.59
2022-10-25T12:31:57.866Z,98754.16
2022-10-25T12:34:39.610Z,98748.50
2022-10-25T12:37:12.257Z,98757.34
2022-10-25T12:39:40.950Z,98744.50
2022-10-25T12:42:26.342Z,98745.56
2022-10-25T12:45:12.798Z,98744.50
2022-10-25T12:48:10.495Z,98750.38
2022-10-25T12:51:00.472Z,98747.69
2022-10-25T12:53:58.933Z,98742.34
2022-10-25T12:56:34.201Z,98742.88
2022-10-25T12:59:15.945Z,98742.88
2022-10-25T13:01:42.551Z,98750.41
2022-10-25T13:04:42.958Z,98737.25
2022-10-25T13:07:11.949Z,98739.38
2022-10-25T13:09:39.026Z,98735.88
2022-10-25T13:12:06.803Z,98733.75
2022-10-25T13:14:38.273Z,98738.00
2022-10-25T13:17:20.112Z,98727.53
2022-10-25T13:19:55.873Z,98726.94
2022-10-25T13:22:39.643Z,98728.56
2022-10-25T13:25:26.359Z,98724.00
2022-10-25T13:28:13.813Z,98726.19
2022-10-25T13:30:41.277Z,98728.31
2022-10-25T13:33:24.308Z,98727.78
2022-10-25T13:35:51.187Z,98731.25
2022-10-25T13:38:21.674Z,98736.06
2022-10-25T13:41:12.522Z,98737.66
2022-10-25T13:43:57.245Z,98747.56
2022-10-25T13:46:30.727Z,98739.50
2022-10-25T13:48:57.835Z,98746.19
2022-10-25T13:51:24.620Z,98748.63
2022-10-25T13:53:53.033Z,98738.97
2022-10-25T13:56:48.240Z,98738.97
2022-10-25T13:59:50.075Z,98741.66
2022-10-25T14:02:20.918Z,98739.19
2022-10-25T14:04:47.864Z,98737.63
2022-10-25T14:07:45.035Z,98733.81
2022-10-25T14:10:24.821Z,98735.94
2022-10-25T14:12:53.613Z,98737.81
2022-10-25T14:15:33.580Z,98740.75
2022-10-25T14:18:07.171Z,98739.09
2022-10-25T14:20:35.950Z,98743.31
2022-10-25T14:23:06.998Z,98740.81
2022-10-25T14:25:51.220Z,98737.22
2022-10-25T14:28:28.454Z,98729.72
2022-10-25T14:30:55.100Z,98736.97
2022-10-25T14:33:28.082Z,98730.72
2022-10-25T14:36:10.244Z,98735.38
2022-10-25T14:38:54.236Z,98735.94
2022-10-25T14:41:25.365Z,98732.16
2022-10-25T14:43:52.291Z,98731.75
2022-10-25T14:46:21.726Z,98731.88
2022-10-25T14:48:53.053Z,98728.91
2022-10-25T14:51:24.363Z,98716.97
2022-10-25T14:54:01.827Z,98729.53
2022-10-25T14:56:36.471Z,98720.50
2022-10-25T14:59:06.389Z,98722.19
2022-10-25T15:01:34.112Z,98713.75
2022-10-25T15:04:01.403Z,98717.53
2022-10-25T15:06:31.514Z,98721.16
2022-10-25T15:09:37.044Z,98717.06
2022-10-25T15:12:05.014Z,98708.09
2022-10-25T15:14:31.662Z,98716.09
2022-10-25T15:17:03.539Z,98704.28
2022-10-25T15:19:30.179Z,98700.84
2022-10-25T15:22:10.271Z,98699.63
2022-10-25T15:24:46.283Z,98709.25
2022-10-25T15:27:35.260Z,98697.50
2022-10-25T15:30:02.903Z,98698.75
2022-10-25T15:32:29.561Z,98704.22
2022-10-25T15:34:59.742Z,98699.16
2022-10-25T15:37:28.251Z,98693.50
2022-10-25T15:39:56.115Z,98703.41
2022-10-25T15:42:25.336Z,98700.69
2022-10-25T15:44:52.105Z,98704.13
2022-10-25T15:47:28.585Z,98704.03
2022-10-25T15:49:55.878Z,98701.28
2022-10-25T15:52:22.738Z,98694.78
2022-10-25T15:54:49.859Z,98699.28
2022-10-25T15:57:17.845Z,98703.72
2022-10-25T15:59:45.179Z,98697.78
2022-10-25T16:02:20.106Z,98706.28
2022-10-25T16:04:47.084Z,98708.53
2022-10-25T16:07:15.101Z,98708.19
2022-10-25T16:09:42.870Z,98717.72
2022-10-25T16:12:19.520Z,98712.53
2022-10-25T16:14:46.839Z,98713.50
2022-10-25T16:17:14.090Z,98715.72
2022-10-25T16:19:40.875Z,98718.13
2022-10-25T16:22:07.576Z,98717.75
2022-10-25T16:24:34.205Z,98721.13
2022-10-25T16:27:01.279Z,98722.78
2022-10-25T16:29:27.929Z,98727.44
2022-10-25T16:31:54.576Z,98726.16
2022-10-25T16:34:21.325Z,98722.88
2022-10-25T16:36:50.334Z,98729.69
2022-10-25T16:39:16.944Z,98727.19
2022-10-25T16:41:45.469Z,98727.19
2022-10-25T16:44:13.782Z,98733.88
2022-10-25T16:46:40.539Z,98726.13
2022-10-25T16:49:09.373Z,98735.34
2022-10-25T16:51:37.819Z,98741.06
2022-10-25T16:54:05.595Z,98738.06
2022-10-25T16:56:32.285Z,98736.97
2022-10-25T16:58:58.908Z,98744.50
2022-10-25T17:01:29.285Z,98747.13
2022-10-25T17:03:56.043Z,98747.47
2022-10-25T17:06:42.018Z,98738.72
2022-10-25T17:09:09.712Z,98752.75
2022-10-25T17:11:36.441Z,98752.19
2022-10-25T17:14:11.453Z,98750.84
2022-10-25T17:16:40.940Z,98758.69
2022-10-25T17:19:09.807Z,98760.72
2022-10-25T17:21:36.540Z,98760.72
2022-10-25T17:24:04.746Z,98759.22
2022-10-25T17:26:31.401Z,98774.25
2022-10-25T17:29:00.880Z,98771.47
2022-10-25T17:31:28.530Z,98763.97
2022-10-25T17:33:56.772Z,98759.22
2022-10-25T17:36:23.441Z,98764.53
2022-10-25T17:38:50.774Z,98773.53
2022-10-25T17:41:17.759Z,98763.03
2022-10-25T17:43:44.465Z,98762.22
2022-10-25T17:46:18.141Z,98764.06
2022-10-25T17:48:45.514Z,98762.34
2022-10-25T17:51:14.212Z,98767.91
2022-10-25T17:53:40.900Z,98770.53
2022-10-25T17:56:17.570Z,98766.38
2022-10-25T17:58:46.282Z,98772.94
2022-10-25T18:01:15.974Z,98773.81
2022-10-25T18:03:42.752Z,98773.69
2022-10-25T18:06:11.811Z,98781.97
2022-10-25T18:08:38.955Z,98783.44
2022-10-25T18:11:15.907Z,98780.25
2022-10-25T18:13:42.715Z,98766.38
2022-10-25T18:16:10.822Z,98768.22
2022-10-25T18:18:38.227Z,98775.38
2022-10-25T18:21:07.201Z,98768.31
2022-10-25T18:23:34.985Z,98775.00
2022-10-25T18:26:02.729Z,98769.53
2022-10-25T18:28:32.517Z,98773.22
2022-10-25T18:31:00.828Z,98768.00
2022-10-25T18:33:31.959Z,98770.28
2022-10-25T18:36:00.194Z,98770.94
2022-10-25T18:38:27.574Z,98773.75
2022-10-25T18:40:57.856Z,98778.31
2022-10-25T18:43:25.474Z,98775.88
2022-10-25T18:45:59.768Z,98771.91
2022-10-25T18:48:27.171Z,98772.44
2022-10-25T18:50:54.073Z,98767.41
2022-10-25T18:53:22.823Z,98769.25
2022-10-25T18:55:51.631Z,98768.88
2022-10-25T18:58:18.676Z,98770.56
2022-10-25T19:00:46.950Z,98765.28
2022-10-25T19:03:15.657Z,98761.00
2022-10-25T19:05:43.278Z,98759.59
2022-10-25T19:08:11.885Z,98770.94
2022-10-25T19:10:39.904Z,98766.97
2022-10-25T19:13:08.045Z,98762.06
2022-10-25T19:15:35.048Z,98759.84
2022-10-25T19:18:02.716Z,98756.34
2022-10-25T19:20:29.378Z,98764.31
2022-10-25T19:22:58.718Z,98764.72
2022-10-25T19:25:29.679Z,98759.91
2022-10-25T19:27:56.638Z,98760.72
2022-10-25T19:30:23.811Z,98756.38
2022-10-25T19:32:51.398Z,98758.72
2022-10-25T19:35:19.212Z,98760.25
2022-10-25T19:37:46.347Z,98762.91
2022-10-25T19:40:14.067Z,98759.94
2022-10-25T19:42:40.689Z,98767.94
2022-10-25T19:45:07.687Z,98768.63
2022-10-25T19:47:35.861Z,98764.31
2022-10-25T19:50:05.645Z,98755.75
2022-10-25T19:52:36.810Z,98756.16
2022-10-25T19:55:07.414Z,98757.41
2022-10-25T19:57:35.184Z,98755.44
2022-10-25T20:00:02.187Z,98759.19
2022-10-25T20:02:29.536Z,98753.53
2022-10-25T20:04:56.403Z,98756.25
2022-10-25T20:07:24.193Z,98756.81
2022-10-25T20:09:50.871Z,98752.41
2022-10-25T20:12:17.562Z,98752.00
2022-10-25T20:14:44.189Z,98753.88
2022-10-25T20:17:12.534Z,98747.78
2022-10-25T20:19:39.301Z,98745.91
2022-10-25T20:22:05.991Z,98751.19
2022-10-25T20:24:32.648Z,98751.41
2022-10-25T20:27:00.184Z,98751.88
2022-10-25T20:29:27.199Z,98753.25
2022-10-25T20:31:53.921Z,98761.56
2022-10-25T20:34:20.783Z,98762.81
2022-10-25T20:36:48.807Z,98764.63
2022-10-25T20:39:16.004Z,98762.25
2022-10-25T20:41:42.711Z,98757.16
2022-10-25T20:44:09.789Z,98761.44
2022-10-25T20:46:36.843Z,98763.47
2022-10-25T20:49:04.879Z,98760.06
2022-10-25T20:51:31.630Z,98759.25
2022-10-25T20:53:58.394Z,98764.38
2022-10-25T20:56:25.063Z,98766.25
2022-10-25T20:58:51.764Z,98766.50
2022-10-25T21:01:18.977Z,98775.25
2022-10-25T21:03:45.720Z,98766.28
2022-10-25T21:06:13.456Z,98764.88
2022-10-25T21:08:40.170Z,98768.09
2022-10-25T21:11:09.462Z,98768.09
2022-10-25T21:13:36.986Z,98764.25
2022-10-25T21:16:09.752Z,98763.47
2022-10-25T21:18:37.590Z,98756.94
2022-10-25T21:21:07.620Z,98761.00
2022-10-25T21:23:35.081Z,98764.47
2022-10-25T21:26:04.118Z,98775.72
2022-10-25T21:28:34.840Z,98774.72
2022-10-25T21:31:06.837Z,98776.34
2022-10-25T21:33:33.723Z,98776.78
2022-10-25T21:36:11.123Z,98767.66
2022-10-25T21:38:38.211Z,98772.72
2022-10-25T21:41:07.251Z,98767.00
2022-10-25T21:43:34.515Z,98767.25
2022-10-25T21:46:04.686Z,98763.38
2022-10-25T21:48:31.357Z,98764.59
2022-10-25T21:50:59.116Z,98761.53
2022-10-25T21:53:26.128Z,98761.31
2022-10-25T21:56:04.336Z,98756.84
2022-10-25T21:58:31.001Z,98761.72
2022-10-25T22:00:57.680Z,98753.41
2022-10-25T22:03:26.931Z,98740.19
2022-10-25T22:05:54.386Z,98742.84
2022-10-25T22:08:21.996Z,98750.19
2022-10-25T22:13:26.631Z,98741.41
2022-10-25T22:15:57.029Z,98744.28
2022-10-25T22:18:23.770Z,98749.97
2022-10-25T22:20:55.768Z,98746.31
2022-10-25T22:23:23.897Z,98752.44
2022-10-25T22:25:50.729Z,98744.31
2022-10-25T22:28:17.467Z,98738.22
2022-10-25T22:30:44.874Z,98737.78
2022-10-25T22:33:11.739Z,98739.22
2022-10-25T22:35:41.608Z,98738.19
2022-10-25T22:38:08.292Z,98733.72
2022-10-25T22:40:34.947Z,98736.56
2022-10-25T22:43:06.464Z,98732.72
2022-10-25T22:45:35.473Z,98731.72
2022-10-25T22:48:02.128Z,98728.66
2022-10-25T22:50:28.824Z,98724.38
2022-10-25T22:52:55.439Z,98727.25
2022-10-25T22:55:22.146Z,98724.22
2022-10-25T22:57:49.053Z,98726.25
2022-10-25T23:00:15.947Z,98725.03
2022-10-25T23:02:42.596Z,98718.72
2022-10-25T23:05:09.451Z,98719.16
2022-10-25T23:07:36.228Z,98715.50
2022-10-25T23:10:02.943Z,98718.31
2022-10-25T23:12:29.627Z,98725.25
2022-10-25T23:14:56.252Z,98727.28
2022-10-25T23:17:22.984Z,98716.31
2022-10-25T23:19:49.639Z,98722.81
2022-10-25T23:22:16.262Z,98721.59
2022-10-25T23:24:42.892Z,98726.47
2022-10-25T23:27:09.526Z,98723.03
2022-10-25T23:29:36.198Z,98728.50
2022-10-25T23:32:02.942Z,98728.31
2022-10-25T23:34:32.188Z,98730.09
2022-10-25T23:36:58.913Z,98724.66
2022-10-25T23:39:25.636Z,98727.69
2022-10-25T23:41:56.698Z,98724.66
2022-10-25T23:44:24.296Z,98713.25
2022-10-25T23:46:51.008Z,98730.53
2022-10-25T23:49:17.682Z,98730.72
2022-10-25T23:51:44.699Z,98730.09
2022-10-25T23:54:11.324Z,98726.66
2022-10-25T23:56:38.278Z,98723.59
2022-10-25T23:59:04.946Z,98719.97
